sensor_id;sensor_type;location;lat;lon;timestamp;P1;durP1;ratioP1;P2;durP2;ratioP2
21814;SDS011;11069;48.988;8.450;2023-06-19T00:01:14;9.48;;;7.55;;
21814;SDS011;11069;48.988;8.450;2023-06-19T00:03:40;9.13;;;7.30;;
21814;SDS011;11069;48.988;8.450;2023-06-19T00:06:06;8.75;;;6.90;;
21814;SDS011;11069;48.988;8.450;2023-06-19T00:08:32;8.82;;;7.50;;
21814;SDS011;11069;48.988;8.450;2023-06-19T00:10:58;9.90;;;7.60;;
21814;SDS011;11069;48.988;8.450;2023-06-19T00:13:24;9.88;;;7.70;;
21814;SDS011;11069;48.988;8.450;2023-06-19T00:15:50;7.60;;;6.53;;
21814;SDS011;11069;48.988;8.450;2023-06-19T00:18:16;9.10;;;7.55;;
21814;SDS011;11069;48.988;8.450;2023-06-19T00:20:44;9.93;;;7.68;;
21814;SDS011;11069;48.988;8.450;2023-06-19T00:23:11;10.05;;;7.43;;
21814;SDS011;11069;48.988;8.450;2023-06-19T00:25:39;8.65;;;7.25;;
21814;SDS011;11069;48.988;8.450;2023-06-19T00:28:05;9.43;;;5.97;;
21814;SDS011;11069;48.988;8.450;2023-06-19T00:33:02;7.70;;;5.85;;
21814;SDS011;11069;48.988;8.450;2023-06-19T00:35:28;7.13;;;5.38;;
21814;SDS011;11069;48.988;8.450;2023-06-19T00:37:54;8.07;;;5.50;;
21814;SDS011;11069;48.988;8.450;2023-06-19T00:40:27;4.88;;;4.32;;
21814;SDS011;11069;48.988;8.450;2023-06-19T00:42:54;5.18;;;4.35;;
21814;SDS011;11069;48.988;8.450;2023-06-19T00:45:20;6.57;;;4.50;;
21814;SDS011;11069;48.988;8.450;2023-06-19T00:47:46;6.88;;;4.85;;
21814;SDS011;11069;48.988;8.450;2023-06-19T00:50:12;7.35;;;4.70;;
21814;SDS011;11069;48.988;8.450;2023-06-19T00:52:38;4.95;;;3.60;;
21814;SDS011;11069;48.988;8.450;2023-06-19T00:55:05;7.35;;;4.00;;
21814;SDS011;11069;48.988;8.450;2023-06-19T00:57:31;4.82;;;3.97;;
21814;SDS011;11069;48.988;8.450;2023-06-19T00:59:57;8.77;;;4.03;;
21814;SDS011;11069;48.988;8.450;2023-06-19T01:02:24;3.95;;;3.33;;
21814;SDS011;11069;48.988;8.450;2023-06-19T01:04:50;5.15;;;3.20;;
21814;SDS011;11069;48.988;8.450;2023-06-19T01:07:22;2.88;;;2.53;;
21814;SDS011;11069;48.988;8.450;2023-06-19T01:09:53;3.60;;;2.67;;
21814;SDS011;11069;48.988;8.450;2023-06-19T01:12:20;3.85;;;3.13;;
21814;SDS011;11069;48.988;8.450;2023-06-19T01:14:56;3.63;;;2.65;;
21814;SDS011;11069;48.988;8.450;2023-06-19T01:17:22;3.88;;;2.83;;
21814;SDS011;11069;48.988;8.450;2023-06-19T01:19:49;3.33;;;3.03;;
21814;SDS011;11069;48.988;8.450;2023-06-19T01:22:30;3.55;;;2.72;;
21814;SDS011;11069;48.988;8.450;2023-06-19T01:24:57;4.60;;;2.92;;
21814;SDS011;11069;48.988;8.450;2023-06-19T01:27:23;3.05;;;2.70;;
21814;SDS011;11069;48.988;8.450;2023-06-19T01:29:56;3.25;;;2.30;;
21814;SDS011;11069;48.988;8.450;2023-06-19T01:32:29;3.67;;;2.63;;
21814;SDS011;11069;48.988;8.450;2023-06-19T01:34:57;4.82;;;2.47;;
21814;SDS011;11069;48.988;8.450;2023-06-19T01:37:24;4.60;;;3.28;;
21814;SDS011;11069;48.988;8.450;2023-06-19T01:39:54;3.10;;;2.53;;
21814;SDS011;11069;48.988;8.450;2023-06-19T01:42:21;5.80;;;2.13;;
21814;SDS011;11069;48.988;8.450;2023-06-19T01:44:49;2.75;;;2.13;;
21814;SDS011;11069;48.988;8.450;2023-06-19T01:47:15;3.38;;;2.35;;
21814;SDS011;11069;48.988;8.450;2023-06-19T01:49:45;3.08;;;2.65;;
21814;SDS011;11069;48.988;8.450;2023-06-19T01:52:11;3.28;;;2.40;;
21814;SDS011;11069;48.988;8.450;2023-06-19T01:54:37;6.20;;;2.35;;
21814;SDS011;11069;48.988;8.450;2023-06-19T01:57:03;2.92;;;2.03;;
21814;SDS011;11069;48.988;8.450;2023-06-19T01:59:29;3.65;;;2.70;;
21814;SDS011;11069;48.988;8.450;2023-06-19T02:01:54;2.60;;;2.40;;
21814;SDS011;11069;48.988;8.450;2023-06-19T02:04:20;2.42;;;2.20;;
21814;SDS011;11069;48.988;8.450;2023-06-19T02:06:46;3.92;;;2.50;;
21814;SDS011;11069;48.988;8.450;2023-06-19T02:09:12;2.97;;;2.25;;
21814;SDS011;11069;48.988;8.450;2023-06-19T02:11:38;3.40;;;2.78;;
21814;SDS011;11069;48.988;8.450;2023-06-19T02:14:04;3.33;;;2.60;;
21814;SDS011;11069;48.988;8.450;2023-06-19T02:16:30;2.53;;;2.05;;
21814;SDS011;11069;48.988;8.450;2023-06-19T02:18:56;2.47;;;2.20;;
21814;SDS011;11069;48.988;8.450;2023-06-19T02:21:23;3.10;;;2.63;;
21814;SDS011;11069;48.988;8.450;2023-06-19T02:23:49;2.72;;;2.40;;
21814;SDS011;11069;48.988;8.450;2023-06-19T02:26:15;3.22;;;2.55;;
21814;SDS011;11069;48.988;8.450;2023-06-19T02:28:41;2.92;;;2.33;;
21814;SDS011;11069;48.988;8.450;2023-06-19T02:31:07;3.05;;;2.20;;
21814;SDS011;11069;48.988;8.450;2023-06-19T02:33:33;5.32;;;2.70;;
21814;SDS011;11069;48.988;8.450;2023-06-19T02:35:58;3.42;;;2.17;;
21814;SDS011;11069;48.988;8.450;2023-06-19T02:38:25;2.40;;;2.08;;
21814;SDS011;11069;48.988;8.450;2023-06-19T02:40:51;2.97;;;2.08;;
21814;SDS011;11069;48.988;8.450;2023-06-19T02:43:17;3.45;;;2.65;;
21814;SDS011;11069;48.988;8.450;2023-06-19T02:45:43;2.85;;;2.45;;
21814;SDS011;11069;48.988;8.450;2023-06-19T02:48:09;2.85;;;2.20;;
21814;SDS011;11069;48.988;8.450;2023-06-19T02:50:35;2.25;;;2.00;;
21814;SDS011;11069;48.988;8.450;2023-06-19T02:53:01;2.60;;;2.40;;
21814;SDS011;11069;48.988;8.450;2023-06-19T02:55:27;3.17;;;2.45;;
21814;SDS011;11069;48.988;8.450;2023-06-19T02:57:53;2.70;;;2.35;;
21814;SDS011;11069;48.988;8.450;2023-06-19T03:00:19;2.65;;;2.20;;
21814;SDS011;11069;48.988;8.450;2023-06-19T03:02:45;2.90;;;2.20;;
21814;SDS011;11069;48.988;8.450;2023-06-19T03:05:13;2.40;;;2.20;;
21814;SDS011;11069;48.988;8.450;2023-06-19T03:07:40;2.30;;;2.10;;
21814;SDS011;11069;48.988;8.450;2023-06-19T03:10:06;3.60;;;2.30;;
21814;SDS011;11069;48.988;8.450;2023-06-19T03:12:32;3.88;;;2.63;;
21814;SDS011;11069;48.988;8.450;2023-06-19T03:14:58;3.80;;;2.67;;
21814;SDS011;11069;48.988;8.450;2023-06-19T03:17:25;3.42;;;2.47;;
21814;SDS011;11069;48.988;8.450;2023-06-19T03:19:51;2.60;;;2.25;;
21814;SDS011;11069;48.988;8.450;2023-06-19T03:22:17;3.28;;;2.72;;
21814;SDS011;11069;48.988;8.450;2023-06-19T03:24:43;3.65;;;2.65;;
21814;SDS011;11069;48.988;8.450;2023-06-19T03:27:09;3.22;;;2.70;;
21814;SDS011;11069;48.988;8.450;2023-06-19T03:29:35;3.80;;;2.72;;
21814;SDS011;11069;48.988;8.450;2023-06-19T03:32:01;3.15;;;2.42;;
21814;SDS011;11069;48.988;8.450;2023-06-19T03:34:27;2.88;;;2.50;;
21814;SDS011;11069;48.988;8.450;2023-06-19T03:36:53;4.15;;;2.80;;
21814;SDS011;11069;48.988;8.450;2023-06-19T03:39:19;3.67;;;2.80;;
21814;SDS011;11069;48.988;8.450;2023-06-19T03:41:45;3.42;;;2.47;;
21814;SDS011;11069;48.988;8.450;2023-06-19T03:44:11;3.15;;;2.35;;
21814;SDS011;11069;48.988;8.450;2023-06-19T03:46:37;3.22;;;2.75;;
21814;SDS011;11069;48.988;8.450;2023-06-19T03:49:03;4.45;;;3.00;;
21814;SDS011;11069;48.988;8.450;2023-06-19T03:51:29;3.70;;;2.58;;
21814;SDS011;11069;48.988;8.450;2023-06-19T03:53:55;3.55;;;2.45;;
21814;SDS011;11069;48.988;8.450;2023-06-19T03:56:21;4.55;;;2.65;;
21814;SDS011;11069;48.988;8.450;2023-06-19T03:58:47;3.83;;;2.40;;
21814;SDS011;11069;48.988;8.450;2023-06-19T04:01:13;3.03;;;2.35;;
21814;SDS011;11069;48.988;8.450;2023-06-19T04:03:39;2.95;;;2.40;;
21814;SDS011;11069;48.988;8.450;2023-06-19T04:06:05;2.38;;;2.10;;
21814;SDS011;11069;48.988;8.450;2023-06-19T04:08:32;3.00;;;2.65;;
21814;SDS011;11069;48.988;8.450;2023-06-19T04:10:58;4.25;;;2.50;;
21814;SDS011;11069;48.988;8.450;2023-06-19T04:13:24;4.30;;;2.60;;
21814;SDS011;11069;48.988;8.450;2023-06-19T04:15:51;2.50;;;2.20;;
21814;SDS011;11069;48.988;8.450;2023-06-19T04:18:17;3.60;;;2.55;;
21814;SDS011;11069;48.988;8.450;2023-06-19T04:20:43;2.95;;;2.58;;
21814;SDS011;11069;48.988;8.450;2023-06-19T04:23:09;4.30;;;2.55;;
21814;SDS011;11069;48.988;8.450;2023-06-19T04:25:35;3.25;;;2.67;;
21814;SDS011;11069;48.988;8.450;2023-06-19T04:28:01;2.95;;;2.58;;
21814;SDS011;11069;48.988;8.450;2023-06-19T04:30:28;4.95;;;2.83;;
21814;SDS011;11069;48.988;8.450;2023-06-19T04:32:54;3.88;;;2.78;;
21814;SDS011;11069;48.988;8.450;2023-06-19T04:35:20;4.38;;;3.30;;
21814;SDS011;11069;48.988;8.450;2023-06-19T04:37:48;3.22;;;2.75;;
21814;SDS011;11069;48.988;8.450;2023-06-19T04:40:14;3.72;;;2.83;;
21814;SDS011;11069;48.988;8.450;2023-06-19T04:42:40;3.83;;;2.85;;
21814;SDS011;11069;48.988;8.450;2023-06-19T04:45:06;5.25;;;3.10;;
21814;SDS011;11069;48.988;8.450;2023-06-19T04:47:33;3.22;;;2.90;;
21814;SDS011;11069;48.988;8.450;2023-06-19T04:49:59;3.20;;;2.83;;
21814;SDS011;11069;48.988;8.450;2023-06-19T04:52:25;4.13;;;2.78;;
21814;SDS011;11069;48.988;8.450;2023-06-19T04:54:51;3.70;;;3.08;;
21814;SDS011;11069;48.988;8.450;2023-06-19T04:57:17;2.97;;;2.67;;
21814;SDS011;11069;48.988;8.450;2023-06-19T04:59:43;4.63;;;3.00;;
21814;SDS011;11069;48.988;8.450;2023-06-19T05:02:10;4.28;;;2.90;;
21814;SDS011;11069;48.988;8.450;2023-06-19T05:04:36;3.35;;;2.53;;
21814;SDS011;11069;48.988;8.450;2023-06-19T05:07:02;3.22;;;2.78;;
21814;SDS011;11069;48.988;8.450;2023-06-19T05:09:28;4.75;;;3.20;;
21814;SDS011;11069;48.988;8.450;2023-06-19T05:11:55;5.18;;;3.08;;
21814;SDS011;11069;48.988;8.450;2023-06-19T05:14:21;4.28;;;3.03;;
21814;SDS011;11069;48.988;8.450;2023-06-19T05:16:47;4.30;;;2.95;;
21814;SDS011;11069;48.988;8.450;2023-06-19T05:19:13;4.05;;;2.97;;
21814;SDS011;11069;48.988;8.450;2023-06-19T05:21:39;4.72;;;3.13;;
21814;SDS011;11069;48.988;8.450;2023-06-19T05:24:04;3.45;;;2.70;;
21814;SDS011;11069;48.988;8.450;2023-06-19T05:26:31;3.38;;;2.80;;
21814;SDS011;11069;48.988;8.450;2023-06-19T05:29:00;3.33;;;2.90;;
21814;SDS011;11069;48.988;8.450;2023-06-19T05:31:27;3.30;;;3.00;;
21814;SDS011;11069;48.988;8.450;2023-06-19T05:33:53;3.08;;;2.78;;
21814;SDS011;11069;48.988;8.450;2023-06-19T05:36:19;2.95;;;2.65;;
21814;SDS011;11069;48.988;8.450;2023-06-19T05:38:44;4.30;;;2.53;;
21814;SDS011;11069;48.988;8.450;2023-06-19T05:41:13;3.25;;;2.95;;
21814;SDS011;11069;48.988;8.450;2023-06-19T05:43:41;4.15;;;3.30;;
21814;SDS011;11069;48.988;8.450;2023-06-19T05:46:07;3.92;;;2.40;;
21814;SDS011;11069;48.988;8.450;2023-06-19T05:48:32;4.90;;;2.97;;
21814;SDS011;11069;48.988;8.450;2023-06-19T05:50:58;3.65;;;2.85;;
21814;SDS011;11069;48.988;8.450;2023-06-19T05:53:24;3.80;;;3.05;;
21814;SDS011;11069;48.988;8.450;2023-06-19T05:55:50;4.00;;;3.20;;
21814;SDS011;11069;48.988;8.450;2023-06-19T05:58:16;3.72;;;2.80;;
21814;SDS011;11069;48.988;8.450;2023-06-19T06:00:46;3.65;;;2.90;;
21814;SDS011;11069;48.988;8.450;2023-06-19T06:03:12;3.58;;;3.08;;
21814;SDS011;11069;48.988;8.450;2023-06-19T06:05:38;4.53;;;3.42;;
21814;SDS011;11069;48.988;8.450;2023-06-19T06:08:04;4.28;;;3.03;;
21814;SDS011;11069;48.988;8.450;2023-06-19T06:10:31;4.35;;;3.22;;
21814;SDS011;11069;48.988;8.450;2023-06-19T06:12:57;4.32;;;3.13;;
21814;SDS011;11069;48.988;8.450;2023-06-19T06:15:23;3.53;;;3.20;;
21814;SDS011;11069;48.988;8.450;2023-06-19T06:17:49;3.15;;;2.80;;
21814;SDS011;11069;48.988;8.450;2023-06-19T06:20:15;3.50;;;2.80;;
21814;SDS011;11069;48.988;8.450;2023-06-19T06:22:42;3.60;;;3.00;;
21814;SDS011;11069;48.988;8.450;2023-06-19T06:25:08;2.97;;;2.55;;
21814;SDS011;11069;48.988;8.450;2023-06-19T06:27:37;3.28;;;2.97;;
21814;SDS011;11069;48.988;8.450;2023-06-19T06:30:03;4.43;;;2.92;;
21814;SDS011;11069;48.988;8.450;2023-06-19T06:32:29;4.30;;;2.85;;
21814;SDS011;11069;48.988;8.450;2023-06-19T06:34:56;3.53;;;2.95;;
21814;SDS011;11069;48.988;8.450;2023-06-19T06:37:22;2.90;;;2.55;;
21814;SDS011;11069;48.988;8.450;2023-06-19T06:39:48;3.03;;;2.72;;
21814;SDS011;11069;48.988;8.450;2023-06-19T06:42:15;2.22;;;2.03;;
21814;SDS011;11069;48.988;8.450;2023-06-19T06:44:41;3.10;;;2.60;;
21814;SDS011;11069;48.988;8.450;2023-06-19T06:47:07;2.70;;;2.28;;
21814;SDS011;11069;48.988;8.450;2023-06-19T06:49:33;2.60;;;2.35;;
21814;SDS011;11069;48.988;8.450;2023-06-19T06:52:01;3.00;;;2.50;;
21814;SDS011;11069;48.988;8.450;2023-06-19T06:54:27;4.18;;;2.58;;
21814;SDS011;11069;48.988;8.450;2023-06-19T06:56:53;2.85;;;2.35;;
21814;SDS011;11069;48.988;8.450;2023-06-19T06:59:23;2.20;;;2.00;;
21814;SDS011;11069;48.988;8.450;2023-06-19T07:01:49;2.40;;;2.13;;
21814;SDS011;11069;48.988;8.450;2023-06-19T07:04:15;2.78;;;2.30;;
21814;SDS011;11069;48.988;8.450;2023-06-19T07:06:41;2.28;;;2.08;;
21814;SDS011;11069;48.988;8.450;2023-06-19T07:09:07;2.05;;;1.85;;
21814;SDS011;11069;48.988;8.450;2023-06-19T07:11:33;2.20;;;2.00;;
21814;SDS011;11069;48.988;8.450;2023-06-19T07:13:59;2.60;;;2.20;;
21814;SDS011;11069;48.988;8.450;2023-06-19T07:16:24;2.20;;;2.00;;
21814;SDS011;11069;48.988;8.450;2023-06-19T07:18:50;2.15;;;1.90;;
21814;SDS011;11069;48.988;8.450;2023-06-19T07:21:16;2.13;;;1.92;;
21814;SDS011;11069;48.988;8.450;2023-06-19T07:23:43;2.20;;;1.90;;
21814;SDS011;11069;48.988;8.450;2023-06-19T07:26:13;2.10;;;1.80;;
21814;SDS011;11069;48.988;8.450;2023-06-19T07:28:39;2.33;;;2.08;;
21814;SDS011;11069;48.988;8.450;2023-06-19T07:31:05;2.53;;;2.20;;
21814;SDS011;11069;48.988;8.450;2023-06-19T07:33:31;2.25;;;1.80;;
21814;SDS011;11069;48.988;8.450;2023-06-19T07:35:57;2.30;;;2.10;;
21814;SDS011;11069;48.988;8.450;2023-06-19T07:38:23;2.17;;;1.98;;
21814;SDS011;11069;48.988;8.450;2023-06-19T07:40:49;2.38;;;2.17;;
21814;SDS011;11069;48.988;8.450;2023-06-19T07:43:15;2.40;;;2.20;;
21814;SDS011;11069;48.988;8.450;2023-06-19T07:45:42;2.28;;;2.08;;
21814;SDS011;11069;48.988;8.450;2023-06-19T07:48:08;2.97;;;2.30;;
21814;SDS011;11069;48.988;8.450;2023-06-19T07:50:34;2.92;;;2.63;;
21814;SDS011;11069;48.988;8.450;2023-06-19T07:53:00;2.78;;;2.20;;
21814;SDS011;11069;48.988;8.450;2023-06-19T07:55:26;2.63;;;2.38;;
21814;SDS011;11069;48.988;8.450;2023-06-19T07:57:53;3.03;;;2.72;;
21814;SDS011;11069;48.988;8.450;2023-06-19T08:00:21;2.65;;;2.33;;
21814;SDS011;11069;48.988;8.450;2023-06-19T08:02:47;3.97;;;2.85;;
21814;SDS011;11069;48.988;8.450;2023-06-19T08:05:13;3.53;;;2.30;;
21814;SDS011;11069;48.988;8.450;2023-06-19T08:07:40;3.90;;;2.75;;
21814;SDS011;11069;48.988;8.450;2023-06-19T08:10:06;3.75;;;2.72;;
21814;SDS011;11069;48.988;8.450;2023-06-19T08:12:32;3.25;;;2.80;;
21814;SDS011;11069;48.988;8.450;2023-06-19T08:14:58;3.33;;;2.97;;
21814;SDS011;11069;48.988;8.450;2023-06-19T08:17:24;3.25;;;2.75;;
21814;SDS011;11069;48.988;8.450;2023-06-19T08:19:50;3.13;;;2.83;;
21814;SDS011;11069;48.988;8.450;2023-06-19T08:22:16;4.57;;;3.30;;
21814;SDS011;11069;48.988;8.450;2023-06-19T08:24:45;3.55;;;3.20;;
21814;SDS011;11069;48.988;8.450;2023-06-19T08:27:11;3.05;;;2.60;;
21814;SDS011;11069;48.988;8.450;2023-06-19T08:29:37;3.65;;;3.10;;
21814;SDS011;11069;48.988;8.450;2023-06-19T08:32:03;3.72;;;2.85;;
21814;SDS011;11069;48.988;8.450;2023-06-19T08:34:29;3.10;;;2.80;;
21814;SDS011;11069;48.988;8.450;2023-06-19T08:36:55;3.40;;;3.00;;
21814;SDS011;11069;48.988;8.450;2023-06-19T08:39:21;3.75;;;3.38;;
21814;SDS011;11069;48.988;8.450;2023-06-19T08:41:47;3.72;;;3.30;;
21814;SDS011;11069;48.988;8.450;2023-06-19T08:44:13;4.47;;;3.50;;
21814;SDS011;11069;48.988;8.450;2023-06-19T08:46:39;3.78;;;2.72;;
21814;SDS011;11069;48.988;8.450;2023-06-19T08:49:07;4.20;;;3.38;;
21814;SDS011;11069;48.988;8.450;2023-06-19T08:51:35;4.03;;;3.13;;
21814;SDS011;11069;48.988;8.450;2023-06-19T08:54:02;4.80;;;3.08;;
21814;SDS011;11069;48.988;8.450;2023-06-19T08:56:29;4.15;;;2.90;;
21814;SDS011;11069;48.988;8.450;2023-06-19T08:59:07;3.17;;;2.78;;
21814;SDS011;11069;48.988;8.450;2023-06-19T09:01:33;4.47;;;3.20;;
21814;SDS011;11069;48.988;8.450;2023-06-19T09:03:59;3.60;;;2.92;;
21814;SDS011;11069;48.988;8.450;2023-06-19T09:06:25;4.57;;;3.22;;
21814;SDS011;11069;48.988;8.450;2023-06-19T09:09:00;3.95;;;3.30;;
21814;SDS011;11069;48.988;8.450;2023-06-19T09:11:26;5.00;;;3.60;;
21814;SDS011;11069;48.988;8.450;2023-06-19T09:13:56;4.03;;;3.63;;
21814;SDS011;11069;48.988;8.450;2023-06-19T09:16:23;3.40;;;3.10;;
21814;SDS011;11069;48.988;8.450;2023-06-19T09:18:49;3.45;;;3.10;;
21814;SDS011;11069;48.988;8.450;2023-06-19T09:21:19;4.65;;;3.65;;
21814;SDS011;11069;48.988;8.450;2023-06-19T09:23:47;5.22;;;3.80;;
21814;SDS011;11069;48.988;8.450;2023-06-19T09:26:14;4.35;;;3.28;;
21814;SDS011;11069;48.988;8.450;2023-06-19T09:28:41;5.82;;;3.33;;
21814;SDS011;11069;48.988;8.450;2023-06-19T09:31:10;3.83;;;3.50;;
21814;SDS011;11069;48.988;8.450;2023-06-19T09:33:38;3.88;;;3.50;;
21814;SDS011;11069;48.988;8.450;2023-06-19T09:36:04;3.75;;;3.33;;
21814;SDS011;11069;48.988;8.450;2023-06-19T09:38:31;4.63;;;3.88;;
21814;SDS011;11069;48.988;8.450;2023-06-19T09:41:00;3.88;;;3.47;;
21814;SDS011;11069;48.988;8.450;2023-06-19T09:43:30;3.60;;;3.25;;
21814;SDS011;11069;48.988;8.450;2023-06-19T09:45:58;5.47;;;3.75;;
21814;SDS011;11069;48.988;8.450;2023-06-19T09:48:29;4.82;;;3.58;;
21814;SDS011;11069;48.988;8.450;2023-06-19T09:53:21;6.00;;;4.00;;
21814;SDS011;11069;48.988;8.450;2023-06-19T09:55:49;4.10;;;3.63;;
21814;SDS011;11069;48.988;8.450;2023-06-19T09:58:19;4.10;;;3.70;;
21814;SDS011;11069;48.988;8.450;2023-06-19T10:00:46;4.25;;;3.80;;
21814;SDS011;11069;48.988;8.450;2023-06-19T10:03:14;3.92;;;3.13;;
21814;SDS011;11069;48.988;8.450;2023-06-19T10:05:41;5.63;;;3.45;;
21814;SDS011;11069;48.988;8.450;2023-06-19T10:08:07;5.07;;;3.70;;
21814;SDS011;11069;48.988;8.450;2023-06-19T10:10:34;6.20;;;3.70;;
21814;SDS011;11069;48.988;8.450;2023-06-19T10:13:21;3.70;;;3.17;;
21814;SDS011;11069;48.988;8.450;2023-06-19T10:15:46;4.45;;;3.63;;
21814;SDS011;11069;48.988;8.450;2023-06-19T10:18:16;3.55;;;3.22;;
21814;SDS011;11069;48.988;8.450;2023-06-19T10:20:43;4.85;;;3.40;;
21814;SDS011;11069;48.988;8.450;2023-06-19T10:25:41;4.47;;;3.20;;
21814;SDS011;11069;48.988;8.450;2023-06-19T10:30:59;4.22;;;3.20;;
21814;SDS011;11069;48.988;8.450;2023-06-19T10:33:26;4.00;;;3.50;;
21814;SDS011;11069;48.988;8.450;2023-06-19T10:35:53;4.22;;;3.45;;
21814;SDS011;11069;48.988;8.450;2023-06-19T10:38:19;6.22;;;3.88;;
21814;SDS011;11069;48.988;8.450;2023-06-19T10:40:45;5.22;;;3.63;;
21814;SDS011;11069;48.988;8.450;2023-06-19T10:43:21;6.50;;;4.10;;
21814;SDS011;11069;48.988;8.450;2023-06-19T10:45:49;4.07;;;3.50;;
21814;SDS011;11069;48.988;8.450;2023-06-19T10:48:33;4.25;;;3.25;;
21814;SDS011;11069;48.988;8.450;2023-06-19T10:50:59;3.40;;;3.10;;
21814;SDS011;11069;48.988;8.450;2023-06-19T10:53:32;3.85;;;3.38;;
21814;SDS011;11069;48.988;8.450;2023-06-19T10:55:59;3.38;;;3.08;;
21814;SDS011;11069;48.988;8.450;2023-06-19T10:58:26;4.38;;;3.28;;
21814;SDS011;11069;48.988;8.450;2023-06-19T11:00:52;4.22;;;3.67;;
21814;SDS011;11069;48.988;8.450;2023-06-19T11:03:18;4.28;;;3.60;;
21814;SDS011;11069;48.988;8.450;2023-06-19T11:05:45;4.65;;;3.60;;
21814;SDS011;11069;48.988;8.450;2023-06-19T11:08:11;4.43;;;3.20;;
21814;SDS011;11069;48.988;8.450;2023-06-19T11:10:43;4.50;;;3.80;;
21814;SDS011;11069;48.988;8.450;2023-06-19T11:13:12;4.45;;;3.40;;
21814;SDS011;11069;48.988;8.450;2023-06-19T11:15:39;5.03;;;3.75;;
21814;SDS011;11069;48.988;8.450;2023-06-19T11:18:05;4.10;;;3.45;;
21814;SDS011;11069;48.988;8.450;2023-06-19T11:20:30;4.95;;;3.38;;
21814;SDS011;11069;48.988;8.450;2023-06-19T11:22:57;4.30;;;3.40;;
21814;SDS011;11069;48.988;8.450;2023-06-19T11:25:24;4.55;;;3.55;;
21814;SDS011;11069;48.988;8.450;2023-06-19T11:27:51;4.65;;;3.58;;
21814;SDS011;11069;48.988;8.450;2023-06-19T11:30:29;3.65;;;3.33;;
21814;SDS011;11069;48.988;8.450;2023-06-19T11:32:55;7.60;;;3.53;;
21814;SDS011;11069;48.988;8.450;2023-06-19T11:35:21;3.53;;;3.10;;
21814;SDS011;11069;48.988;8.450;2023-06-19T11:37:47;4.65;;;3.40;;
21814;SDS011;11069;48.988;8.450;2023-06-19T11:40:13;5.43;;;3.53;;
21814;SDS011;11069;48.988;8.450;2023-06-19T11:42:45;4.40;;;3.80;;
21814;SDS011;11069;48.988;8.450;2023-06-19T11:45:11;3.97;;;3.38;;
21814;SDS011;11069;48.988;8.450;2023-06-19T11:47:37;4.55;;;3.38;;
21814;SDS011;11069;48.988;8.450;2023-06-19T11:50:04;3.78;;;3.30;;
21814;SDS011;11069;48.988;8.450;2023-06-19T11:52:30;4.20;;;3.47;;
21814;SDS011;11069;48.988;8.450;2023-06-19T11:54:58;4.38;;;3.42;;
21814;SDS011;11069;48.988;8.450;2023-06-19T11:57:26;3.85;;;3.45;;
21814;SDS011;11069;48.988;8.450;2023-06-19T11:59:52;4.72;;;3.72;;
21814;SDS011;11069;48.988;8.450;2023-06-19T12:02:18;4.47;;;3.40;;
21814;SDS011;11069;48.988;8.450;2023-06-19T12:04:44;3.65;;;2.97;;
21814;SDS011;11069;48.988;8.450;2023-06-19T12:07:10;3.78;;;3.13;;
21814;SDS011;11069;48.988;8.450;2023-06-19T12:09:36;3.92;;;3.35;;
21814;SDS011;11069;48.988;8.450;2023-06-19T12:12:04;3.55;;;3.25;;
21814;SDS011;11069;48.988;8.450;2023-06-19T12:14:30;3.90;;;3.38;;
21814;SDS011;11069;48.988;8.450;2023-06-19T12:16:56;3.53;;;3.20;;
21814;SDS011;11069;48.988;8.450;2023-06-19T12:19:22;4.20;;;3.50;;
21814;SDS011;11069;48.988;8.450;2023-06-19T12:21:48;4.53;;;3.30;;
21814;SDS011;11069;48.988;8.450;2023-06-19T12:24:14;4.88;;;3.60;;
21814;SDS011;11069;48.988;8.450;2023-06-19T12:26:40;3.65;;;3.30;;
21814;SDS011;11069;48.988;8.450;2023-06-19T12:29:06;3.45;;;2.88;;
21814;SDS011;11069;48.988;8.450;2023-06-19T12:31:33;4.13;;;3.25;;
21814;SDS011;11069;48.988;8.450;2023-06-19T12:33:59;4.03;;;3.17;;
21814;SDS011;11069;48.988;8.450;2023-06-19T12:36:28;4.00;;;3.60;;
21814;SDS011;11069;48.988;8.450;2023-06-19T12:38:56;3.55;;;3.25;;
21814;SDS011;11069;48.988;8.450;2023-06-19T12:41:22;3.35;;;3.05;;
21814;SDS011;11069;48.988;8.450;2023-06-19T12:43:48;3.75;;;3.30;;
21814;SDS011;11069;48.988;8.450;2023-06-19T12:46:14;3.13;;;2.83;;
21814;SDS011;11069;48.988;8.450;2023-06-19T12:48:41;3.50;;;3.20;;
21814;SDS011;11069;48.988;8.450;2023-06-19T12:51:07;3.85;;;3.45;;
21814;SDS011;11069;48.988;8.450;2023-06-19T12:53:33;4.43;;;3.45;;
21814;SDS011;11069;48.988;8.450;2023-06-19T12:55:59;4.43;;;3.40;;
21814;SDS011;11069;48.988;8.450;2023-06-19T12:58:25;5.25;;;3.38;;
21814;SDS011;11069;48.988;8.450;2023-06-19T13:00:53;3.88;;;3.10;;
21814;SDS011;11069;48.988;8.450;2023-06-19T13:03:19;3.95;;;3.10;;
21814;SDS011;11069;48.988;8.450;2023-06-19T13:05:48;4.15;;;3.25;;
21814;SDS011;11069;48.988;8.450;2023-06-19T13:08:14;4.10;;;3.15;;
21814;SDS011;11069;48.988;8.450;2023-06-19T13:10:41;3.38;;;3.08;;
21814;SDS011;11069;48.988;8.450;2023-06-19T13:13:07;3.72;;;3.08;;
21814;SDS011;11069;48.988;8.450;2023-06-19T13:15:35;3.92;;;3.30;;
21814;SDS011;11069;48.988;8.450;2023-06-19T13:18:01;4.95;;;3.15;;
21814;SDS011;11069;48.988;8.450;2023-06-19T13:20:27;3.00;;;2.80;;
21814;SDS011;11069;48.988;8.450;2023-06-19T13:22:53;4.18;;;3.00;;
21814;SDS011;11069;48.988;8.450;2023-06-19T13:25:19;3.53;;;2.80;;
21814;SDS011;11069;48.988;8.450;2023-06-19T13:27:45;3.75;;;2.97;;
21814;SDS011;11069;48.988;8.450;2023-06-19T13:30:11;3.53;;;2.78;;
21814;SDS011;11069;48.988;8.450;2023-06-19T13:32:37;3.40;;;2.75;;
21814;SDS011;11069;48.988;8.450;2023-06-19T13:35:04;4.63;;;2.90;;
21814;SDS011;11069;48.988;8.450;2023-06-19T13:37:30;2.65;;;2.45;;
21814;SDS011;11069;48.988;8.450;2023-06-19T13:39:57;4.03;;;2.70;;
21814;SDS011;11069;48.988;8.450;2023-06-19T13:42:23;3.25;;;2.67;;
21814;SDS011;11069;48.988;8.450;2023-06-19T13:44:49;2.85;;;2.65;;
21814;SDS011;11069;48.988;8.450;2023-06-19T13:47:15;3.13;;;2.63;;
21814;SDS011;11069;48.988;8.450;2023-06-19T13:49:41;3.00;;;2.70;;
21814;SDS011;11069;48.988;8.450;2023-06-19T13:52:07;3.00;;;2.60;;
21814;SDS011;11069;48.988;8.450;2023-06-19T13:54:33;2.97;;;2.65;;
21814;SDS011;11069;48.988;8.450;2023-06-19T13:56:59;3.20;;;2.90;;
21814;SDS011;11069;48.988;8.450;2023-06-19T13:59:26;4.05;;;2.90;;
21814;SDS011;11069;48.988;8.450;2023-06-19T14:01:52;3.58;;;3.00;;
21814;SDS011;11069;48.988;8.450;2023-06-19T14:04:18;3.60;;;2.80;;
21814;SDS011;11069;48.988;8.450;2023-06-19T14:06:44;3.33;;;2.80;;
21814;SDS011;11069;48.988;8.450;2023-06-19T14:09:11;4.70;;;2.75;;
21814;SDS011;11069;48.988;8.450;2023-06-19T14:11:37;3.40;;;3.00;;
21814;SDS011;11069;48.988;8.450;2023-06-19T14:14:04;3.58;;;3.05;;
21814;SDS011;11069;48.988;8.450;2023-06-19T14:16:30;4.25;;;3.13;;
21814;SDS011;11069;48.988;8.450;2023-06-19T14:18:56;3.08;;;2.78;;
21814;SDS011;11069;48.988;8.450;2023-06-19T14:21:22;3.17;;;2.85;;
21814;SDS011;11069;48.988;8.450;2023-06-19T14:23:48;3.72;;;3.30;;
21814;SDS011;11069;48.988;8.450;2023-06-19T14:26:17;4.07;;;3.05;;
21814;SDS011;11069;48.988;8.450;2023-06-19T14:28:43;3.05;;;2.75;;
21814;SDS011;11069;48.988;8.450;2023-06-19T14:31:09;6.72;;;3.28;;
21814;SDS011;11069;48.988;8.450;2023-06-19T14:33:35;3.10;;;2.75;;
21814;SDS011;11069;48.988;8.450;2023-06-19T14:36:02;2.78;;;2.50;;
21814;SDS011;11069;48.988;8.450;2023-06-19T14:38:28;2.72;;;2.40;;
21814;SDS011;11069;48.988;8.450;2023-06-19T14:40:56;2.90;;;2.53;;
21814;SDS011;11069;48.988;8.450;2023-06-19T14:43:23;3.28;;;2.95;;
21814;SDS011;11069;48.988;8.450;2023-06-19T14:45:49;2.53;;;2.30;;
21814;SDS011;11069;48.988;8.450;2023-06-19T14:48:15;4.72;;;2.63;;
21814;SDS011;11069;48.988;8.450;2023-06-19T14:50:41;4.28;;;2.90;;
21814;SDS011;11069;48.988;8.450;2023-06-19T14:53:07;3.55;;;3.10;;
21814;SDS011;11069;48.988;8.450;2023-06-19T14:55:33;3.58;;;2.88;;